Weather History for KMOX - November, 2013

Change the Weather History Date:

Sunday, November 17, 2013

  Actual Average Record
Temperature  
Mean Temperature 34 °F -  
Max Temperature 41 °F 35 °F 71 °F (2001)
Min Temperature 28 °F 19 °F 1 °F (1997)
Degree Days  
Heating Degree Days 30    
Moisture  
Dew Point 33 °F    
Average Humidity 89    
Maximum Humidity 100    
Minimum Humidity 75    
Precipitation  
Precipitation 0.00 in - - ()
Sea Level Pressure  
Sea Level Pressure 29.56 in    
Wind  
Wind Speed 16 mph (NW)    
Max Wind Speed 28 mph    
Max Gust Speed 36 mph    
Visibility 7 miles    
Events      
Averages and records for this station are not official NWS values.
T = Trace of Precipitation, MM = Missing Value Source: NWS Daily Summary

Daily Weather History Graph

Daily Weather History Graph

Search for Another Location

Airport or City:

Trip Planner

Search our weather history database for the weather conditions in past years. The results will help you decide how hot, cold, wet, or windy it might be!

Date:

Astronomy

Nov. 17, 2013 Rise Set
Actual Time 7:26 AM CST 4:51 PM CST
Civil Twilight 6:53 AM CST 5:23 PM CST
Nautical Twilight 6:17 AM CST 5:59 PM CST
Astronomical Twilight 5:42 AM CST 6:34 PM CST
Moon 5:08 PM CST (11/17) 7:20 AM CST (11/17)
Length of Visible Light 10h 29m
Length of Day
9h 24m
Full, 100% of the Moon is Illuminated
Nov 17
Full
Nov 25
Last Quarter
Dec 2
New
Dec 9
First Quarter
Dec 17
Full

Hourly Weather History & Observations

Time (CST) Temp. Windchill Dew Point Humidity Pressure Visibility Wind Dir Wind Speed Gust Speed Precip Events Conditions
12:04 AM 41.0 °F 34.7 °F 41.0 °F 100% 29.30 in 1.2 mi WNW 10.4 mph - N/A   Overcast
12:20 AM 41.0 °F 33.9 °F 41.0 °F 100% 29.31 in 1.2 mi WNW 12.7 mph - N/A   Mist
12:44 AM 41.0 °F 34.3 °F 39.2 °F 93% 29.30 in 1.2 mi WNW 11.5 mph - N/A   Overcast
1:04 AM 41.0 °F 34.3 °F 39.2 °F 93% 29.30 in 1.8 mi WNW 11.5 mph - N/A   Overcast
1:24 AM 41.0 °F 34.3 °F 39.2 °F 93% 29.31 in 1.5 mi WNW 11.5 mph - N/A   Overcast
1:44 AM 41.0 °F 34.3 °F 39.2 °F 93% 29.31 in 2.5 mi WNW 11.5 mph - N/A   Overcast
2:04 AM 39.2 °F 32.0 °F 39.2 °F 100% 29.32 in 4.0 mi WNW 11.5 mph - N/A   Overcast
2:24 AM 39.2 °F 31.6 °F 39.2 °F 100% 29.32 in 5.0 mi NW 12.7 mph 20.7 mph N/A   Overcast
2:44 AM 39.2 °F 32.0 °F 37.4 °F 93% 29.33 in 7.0 mi NW 11.5 mph - N/A   Mostly Cloudy
3:04 AM 39.2 °F 30.8 °F 37.4 °F 93% 29.34 in 7.0 mi WNW 15.0 mph - N/A   Overcast
3:24 AM 39.2 °F 30.5 °F 37.4 °F 93% 29.33 in 7.0 mi NW 16.1 mph - N/A   Overcast
3:44 AM 39.2 °F 30.2 °F 37.4 °F 93% 29.34 in 5.0 mi NW 17.3 mph 23.0 mph N/A   Overcast
4:04 AM 37.4 °F 28.5 °F 37.4 °F 100% 29.35 in 7.0 mi NW 15.0 mph 23.0 mph N/A   Overcast
4:24 AM 37.4 °F 27.8 °F 37.4 °F 100% 29.35 in 7.0 mi NW 17.3 mph 20.7 mph N/A   Overcast
4:44 AM 37.4 °F 27.5 °F 37.4 °F 100% 29.35 in 7.0 mi NW 18.4 mph 24.2 mph N/A   Overcast
5:04 AM 37.4 °F 28.5 °F 37.4 °F 100% 29.36 in 7.0 mi NW 15.0 mph - N/A   Overcast
5:24 AM 37.4 °F 29.3 °F 35.6 °F 93% 29.37 in 5.0 mi NW 12.7 mph - N/A   Overcast
5:44 AM 37.4 °F 29.8 °F 35.6 °F 93% 29.37 in 5.0 mi NW 11.5 mph - N/A   Overcast
6:04 AM 37.4 °F 30.3 °F 35.6 °F 93% 29.38 in 5.0 mi NW 10.4 mph - N/A   Overcast
6:24 AM 37.4 °F 30.3 °F 35.6 °F 93% 29.39 in 5.0 mi NW 10.4 mph - N/A   Overcast
6:44 AM 37.4 °F 30.3 °F 35.6 °F 93% 29.40 in 5.0 mi NW 10.4 mph - N/A   Overcast
7:04 AM 37.4 °F 28.5 °F 35.6 °F 93% 29.41 in 5.0 mi NW 15.0 mph - N/A   Overcast
7:24 AM 37.4 °F 30.8 °F 35.6 °F 93% 29.41 in 5.0 mi NW 9.2 mph - N/A   Overcast
7:44 AM 37.4 °F 30.3 °F 35.6 °F 93% 29.42 in 4.0 mi NW 10.4 mph - N/A   Overcast
8:04 AM 37.4 °F 30.3 °F 35.6 °F 93% 29.42 in 3.0 mi NW 10.4 mph - N/A   Overcast
8:24 AM 37.4 °F 28.2 °F 35.6 °F 93% 29.43 in 3.0 mi NW 16.1 mph 21.9 mph N/A   Overcast
8:44 AM 37.4 °F 28.2 °F 35.6 °F 93% 29.43 in 4.0 mi NW 16.1 mph 20.7 mph N/A   Overcast
9:04 AM 37.4 °F 28.5 °F 35.6 °F 93% 29.44 in 5.0 mi NW 15.0 mph - N/A   Overcast
9:24 AM 37.4 °F 28.2 °F 35.6 °F 93% 29.45 in 5.0 mi NNW 16.1 mph - N/A   Overcast
9:44 AM 37.4 °F 28.5 °F 35.6 °F 93% 29.46 in 5.0 mi NW 15.0 mph - N/A   Overcast
10:04 AM 37.4 °F 30.3 °F 35.6 °F 93% 29.47 in 5.0 mi NW 10.4 mph - N/A   Overcast
10:24 AM 37.4 °F 28.5 °F 37.4 °F 100% 29.48 in 7.0 mi NW 15.0 mph 20.7 mph N/A   Overcast
10:44 AM 37.4 °F 27.8 °F 35.6 °F 93% 29.49 in 7.0 mi NW 17.3 mph - N/A   Overcast
11:04 AM 37.4 °F 26.9 °F 35.6 °F 93% 29.50 in 7.0 mi NW 20.7 mph - N/A   Overcast
11:24 AM 37.4 °F 27.8 °F 35.6 °F 93% 29.51 in 3.0 mi NW 17.3 mph 25.3 mph N/A   Overcast
11:44 AM 35.6 °F 26.2 °F 35.6 °F 100% 29.52 in 3.0 mi NW 15.0 mph 24.2 mph N/A   Overcast
12:04 PM 35.6 °F 24.2 °F 33.8 °F 93% 29.53 in 7.0 mi NW 21.9 mph - N/A   Overcast
12:24 PM 35.6 °F 25.2 °F 35.6 °F 100% 29.53 in 7.0 mi NW 18.4 mph 25.3 mph N/A   Overcast
12:44 PM 35.6 °F 24.2 °F 33.8 °F 93% 29.54 in 10.0 mi NW 21.9 mph 25.3 mph N/A   Overcast
1:04 PM 35.6 °F 24.2 °F 33.8 °F 93% 29.55 in 10.0 mi NW 21.9 mph 25.3 mph N/A   Overcast
1:24 PM 35.6 °F 24.8 °F 33.8 °F 93% 29.56 in 10.0 mi NW 19.6 mph 26.5 mph N/A   Overcast
1:44 PM 37.4 °F 26.4 °F 33.8 °F 87% 29.57 in 10.0 mi NW 23.0 mph - N/A   Mostly Cloudy
2:04 PM 35.6 °F 24.2 °F 33.8 °F 93% 29.58 in 10.0 mi NW 21.9 mph 27.6 mph N/A   Scattered Clouds
2:24 PM 35.6 °F 24.8 °F 33.8 °F 93% 29.60 in 10.0 mi NW 19.6 mph 24.2 mph N/A   Mostly Cloudy
2:44 PM 35.6 °F 23.2 °F 30.2 °F 81% 29.62 in 10.0 mi NW 26.5 mph 29.9 mph N/A   Mostly Cloudy
3:04 PM 35.6 °F 23.7 °F 30.2 °F 81% 29.63 in 10.0 mi NW 24.2 mph 28.8 mph N/A   Mostly Cloudy
3:24 PM 35.6 °F 24.2 °F 30.2 °F 81% 29.64 in 10.0 mi NW 21.9 mph 26.5 mph N/A   Mostly Cloudy
3:44 PM 35.6 °F 24.0 °F 30.2 °F 81% 29.65 in 10.0 mi NW 23.0 mph 29.9 mph N/A   Overcast
4:04 PM 33.8 °F 21.9 °F 30.2 °F 87% 29.67 in 10.0 mi NW 21.9 mph 26.5 mph N/A   Overcast
4:24 PM 33.8 °F 20.8 °F 28.4 °F 81% 29.68 in 10.0 mi NW 26.5 mph 34.5 mph N/A   Overcast
4:44 PM 33.8 °F 21.0 °F 26.6 °F 75% 29.70 in 10.0 mi NW 25.3 mph 35.7 mph N/A   Overcast
5:04 PM 33.8 °F 21.6 °F 26.6 °F 75% 29.72 in 10.0 mi NW 23.0 mph 29.9 mph N/A   Overcast
5:24 PM 33.8 °F 21.9 °F 26.6 °F 75% 29.73 in 10.0 mi NW 21.9 mph 31.1 mph N/A   Overcast
5:44 PM 33.8 °F 22.5 °F 26.6 °F 75% 29.74 in 10.0 mi NW 19.6 mph 29.9 mph N/A   Overcast
6:04 PM 33.8 °F 22.2 °F 26.6 °F 75% 29.76 in 10.0 mi WNW 20.7 mph 27.6 mph N/A   Overcast
6:24 PM 33.8 °F 20.8 °F 26.6 °F 75% 29.77 in 10.0 mi NW 26.5 mph - N/A   Overcast
6:44 PM 32.0 °F 19.2 °F 26.6 °F 80% 29.78 in 10.0 mi NW 23.0 mph 31.1 mph N/A   Overcast
7:04 PM 32.0 °F 19.5 °F 26.6 °F 80% 29.79 in 10.0 mi NW 21.9 mph 31.1 mph N/A   Overcast
7:24 PM 30.2 °F 17.1 °F 26.6 °F 86% 29.80 in 10.0 mi NW 21.9 mph 32.2 mph N/A   Overcast
7:44 PM 30.2 °F 16.5 °F 24.8 °F 80% 29.80 in 10.0 mi NW 24.2 mph 31.1 mph N/A   Overcast
8:04 PM 30.2 °F 15.7 °F 24.8 °F 80% 29.82 in 10.0 mi NW 27.6 mph 33.4 mph N/A   Overcast
8:24 PM 30.2 °F 17.1 °F 24.8 °F 80% 29.82 in 10.0 mi NW 21.9 mph 28.8 mph N/A   Overcast
8:44 PM 30.2 °F 17.1 °F 24.8 °F 80% 29.83 in 10.0 mi NW 21.9 mph 33.4 mph N/A   Overcast
9:04 PM 30.2 °F 16.8 °F 24.8 °F 80% 29.85 in 10.0 mi NW 23.0 mph 29.9 mph N/A   Overcast
9:24 PM 30.2 °F 16.8 °F 24.8 °F 80% 29.86 in 10.0 mi NW 23.0 mph 32.2 mph N/A   Overcast
9:44 PM 30.2 °F 17.1 °F 24.8 °F 80% 29.87 in 10.0 mi NW 21.9 mph 27.6 mph N/A   Overcast
10:04 PM 30.2 °F 18.1 °F 24.8 °F 80% 29.88 in 10.0 mi NW 18.4 mph 25.3 mph N/A   Overcast
10:24 PM 30.2 °F 18.5 °F 24.8 °F 80% 29.88 in 10.0 mi NW 17.3 mph - N/A   Overcast
10:44 PM 30.2 °F 18.5 °F 24.8 °F 80% 29.88 in 10.0 mi NW 17.3 mph 24.2 mph N/A   Overcast
11:04 PM 30.2 °F 18.1 °F 24.8 °F 80% 29.89 in 10.0 mi NW 18.4 mph - N/A   Overcast
11:24 PM 28.4 °F 15.1 °F 23.0 °F 80% 29.90 in 10.0 mi NW 20.7 mph 27.6 mph N/A   Overcast
11:44 PM 28.4 °F 16.6 °F 23.0 °F 80% 29.91 in 10.0 mi NW 16.1 mph 25.3 mph N/A   Overcast